Time;durP1;ratioP1;P1;durP2;ratioP2;P2;SDS_P1;SDS_P2;PMS_P1;PMS_P2;Temp;Humidity;BMP_temperature;BMP_pressure;BME280_temperature;BME280_humidity;BME280_pressure;Samples;Min_cycle;Max_cycle;Signal;HPM_P1;HPM_P2
2021/08/09 00:00:07;;;;;;;1.00;1.00;;;;;;;16.76;83.27;96521.72;5331432;55;20100;-75
2021/08/09 00:05:10;;;;;;;1.65;0.93;;;;;;;16.75;83.21;96529.31;5330735;55;20203;-75
2021/08/09 00:10:13;;;;;;;1.30;1.00;;;;;;;16.70;83.23;96532.06;5330969;55;20122;-75
2021/08/09 00:15:15;;;;;;;1.13;1.05;;;;;;;16.55;83.12;96521.09;5330789;55;20126;-75
2021/08/09 00:20:18;;;;;;;5.40;1.20;;;;;;;16.42;83.06;96521.44;5330855;55;20136;-75
2021/08/09 00:25:20;;;;;;;2.53;1.00;;;;;;;16.40;83.09;96520.41;5329955;55;20122;-75
2021/08/09 00:30:23;;;;;;;2.95;1.00;;;;;;;16.28;83.84;96521.59;5330119;55;20271;-74
2021/08/09 00:35:25;;;;;;;2.95;1.10;;;;;;;16.10;84.25;96524.75;5329243;55;20127;-75
2021/08/09 00:40:28;;;;;;;1.85;1.10;;;;;;;16.09;83.65;96520.41;5330435;55;20109;-75
2021/08/09 00:45:30;;;;;;;3.53;1.17;;;;;;;15.82;84.48;96512.56;5330699;55;20122;-74
2021/08/09 00:50:33;;;;;;;0.95;0.90;;;;;;;15.81;84.56;96508.28;5330189;55;20127;-75
2021/08/09 00:55:37;;;;;;;2.55;1.10;;;;;;;15.76;85.01;96510.50;5329537;55;20126;-75
2021/08/09 01:00:40;;;;;;;1.38;1.08;;;;;;;15.59;85.56;96509.56;5329248;55;20581;-75
2021/08/09 01:05:42;;;;;;;3.25;1.02;;;;;;;15.61;85.16;96515.41;5329646;55;20202;-74
2021/08/09 01:11:05;;;;;;;3.38;1.02;;;;;;;15.61;84.59;96507.06;5328394;55;20131;-74
2021/08/09 01:16:11;;;;;;;1.65;1.10;;;;;;;15.53;84.89;96505.97;5327851;55;20122;-75
2021/08/09 01:21:18;;;;;;;1.10;0.98;;;;;;;15.44;84.91;96502.56;5328054;55;20136;-74
2021/08/09 01:26:46;;;;;;;0.90;0.90;;;;;;;15.30;85.24;96498.59;5327680;55;20205;-75
2021/08/09 01:31:51;;;;;;;1.80;0.98;;;;;;;15.23;85.29;96503.81;5327891;55;20118;-75
2021/08/09 01:36:56;;;;;;;1.30;1.20;;;;;;;15.11;86.06;96502.91;5327334;55;20221;-74
2021/08/09 01:41:59;;;;;;;1.50;1.20;;;;;;;15.17;85.44;96503.75;5327394;55;20130;-74
2021/08/09 01:47:02;;;;;;;4.00;1.13;;;;;;;15.23;84.46;96499.00;5327175;55;20144;-74
2021/08/09 01:52:05;;;;;;;2.88;1.05;;;;;;;15.16;84.56;96501.44;5318084;55;20109;-75
2021/08/09 01:57:07;;;;;;;2.97;0.95;;;;;;;15.20;84.54;96499.25;5326590;55;20131;-75
2021/08/09 02:02:10;;;;;;;2.92;1.10;;;;;;;15.31;84.69;96494.53;5327543;55;20113;-75
2021/08/09 02:07:12;;;;;;;3.35;1.20;;;;;;;15.38;84.96;96499.69;5327111;55;20118;-74
2021/08/09 02:12:15;;;;;;;3.03;1.00;;;;;;;15.52;84.76;96507.22;5327368;55;20126;-75
2021/08/09 02:17:21;;;;;;;1.40;1.00;;;;;;;15.63;84.99;96501.75;5327178;55;20140;-75
2021/08/09 02:22:30;;;;;;;2.60;1.00;;;;;;;15.70;84.94;96498.53;5327123;55;20118;-75
2021/08/09 02:27:36;;;;;;;;;;;;;;;15.60;85.18;96488.06;5326996;55;20148;-74
2021/08/09 02:32:40;;;;;;;1.05;0.90;;;;;;;15.53;85.11;96489.25;5317640;55;19980;-74
2021/08/09 02:37:44;;;;;;;1.63;0.95;;;;;;;15.43;85.12;96485.06;5326459;55;20585;-74
2021/08/09 02:42:48;;;;;;;1.58;1.00;;;;;;;15.33;85.57;96491.28;5326644;55;20118;-74
2021/08/09 02:47:51;;;;;;;0.88;0.80;;;;;;;15.22;85.29;96491.16;5317235;55;20644;-74
2021/08/09 02:52:54;;;;;;;1.10;1.00;;;;;;;15.20;85.12;96493.69;5326914;55;20258;-75
2021/08/09 02:58:04;;;;;;;3.65;0.80;;;;;;;15.14;85.28;96488.03;5326130;55;20122;-74
2021/08/09 03:03:06;;;;;;;1.10;1.10;;;;;;;14.96;86.02;96489.09;5326474;55;20585;-74
2021/08/09 03:08:13;;;;;;;1.50;1.00;;;;;;;15.04;85.88;96494.97;5325958;55;20109;-75
2021/08/09 03:13:23;;;;;;;3.35;1.10;;;;;;;15.06;85.95;96489.72;5326166;55;20113;-75
2021/08/09 03:18:32;;;;;;;1.25;1.00;;;;;;;14.95;86.06;96495.88;5317149;55;20143;-74
2021/08/09 03:23:37;;;;;;;1.00;1.00;;;;;;;15.06;86.57;96500.84;5317208;55;20153;-75
2021/08/09 03:28:40;;;;;;;3.42;0.98;;;;;;;15.26;85.91;96511.19;5316887;55;20649;-74
2021/08/09 03:33:42;;;;;;;1.05;1.05;;;;;;;15.28;86.12;96512.25;5326503;55;20187;-75
2021/08/09 03:38:45;;;;;;;2.40;1.10;;;;;;;15.38;86.13;96510.81;5325592;55;20131;-74
2021/08/09 03:43:47;;;;;;;4.97;1.08;;;;;;;15.48;85.45;96526.16;5325710;55;20126;-75
2021/08/09 03:48:49;;;;;;;1.48;1.10;;;;;;;15.56;84.82;96516.13;5325529;55;20662;-74
2021/08/09 03:53:52;;;;;;;1.80;1.30;;;;;;;15.60;85.22;96527.81;5325921;55;20113;-75
2021/08/09 03:58:54;;;;;;;0.85;0.85;;;;;;;15.62;85.32;96513.41;5325561;55;20135;-75
2021/08/09 04:03:57;;;;;;;1.33;1.25;;;;;;;15.67;84.75;96516.22;5325728;55;20663;-74
2021/08/09 04:09:00;;;;;;;0.90;0.90;;;;;;;15.73;83.58;96507.94;5325315;55;20229;-75
2021/08/09 04:14:03;;;;;;;1.08;1.00;;;;;;;15.61;84.41;96511.84;5325152;55;20590;-74
2021/08/09 04:19:06;;;;;;;0.70;0.70;;;;;;;15.52;84.18;96504.44;5325681;55;20127;-75
2021/08/09 04:24:08;;;;;;;1.05;1.00;;;;;;;15.47;84.41;96510.69;5328660;55;20144;-74
2021/08/09 04:29:11;;;;;;;3.45;0.95;;;;;;;15.49;84.46;96508.19;5328340;55;20122;-75
2021/08/09 04:34:14;;;;;;;1.10;1.05;;;;;;;15.54;84.03;96513.06;5328562;55;20136;-75
2021/08/09 04:39:16;;;;;;;3.35;1.08;;;;;;;15.49;84.19;96524.91;5328527;55;20126;-74
2021/08/09 04:44:19;;;;;;;1.77;1.15;;;;;;;15.43;84.58;96520.50;5328400;55;20112;-74
2021/08/09 04:49:24;;;;;;;1.85;1.00;;;;;;;15.42;84.28;96519.75;5328204;55;20256;-75
2021/08/09 04:54:27;;;;;;;5.70;1.30;;;;;;;15.52;84.51;96532.28;5328310;55;20144;-74
2021/08/09 04:59:29;;;;;;;1.10;1.10;;;;;;;15.63;84.00;96515.69;5328167;55;20117;-75
2021/08/09 05:04:32;;;;;;;3.17;1.33;;;;;;;15.96;83.31;96520.84;5328137;55;20194;-75
2021/08/09 05:09:34;;;;;;;1.42;1.15;;;;;;;16.11;82.85;96515.13;5328170;55;20563;-75
2021/08/09 05:14:37;;;;;;;1.20;1.10;;;;;;;16.29;82.37;96528.69;5327850;55;20127;-75
2021/08/09 05:19:41;;;;;;;1.30;1.23;;;;;;;16.23;83.44;96534.25;5324429;55;20092;-75
2021/08/09 05:24:45;;;;;;;3.13;1.15;;;;;;;16.44;83.01;96540.50;5324761;55;20871;-75
2021/08/09 05:29:48;;;;;;;2.38;1.33;;;;;;;17.01;81.14;96540.38;5326262;55;20662;-74
2021/08/09 05:34:50;;;;;;;2.70;1.40;;;;;;;17.46;79.23;96539.31;5325580;55;20680;-75
2021/08/09 05:39:52;;;;;;;1.40;1.30;;;;;;;18.01;77.21;96535.16;5326039;55;20131;-75
2021/08/09 05:44:55;;;;;;;1.55;1.27;;;;;;;18.19;75.87;96535.44;5326681;55;20127;-74
2021/08/09 05:49:57;;;;;;;1.48;1.30;;;;;;;18.06;76.32;96540.75;5327403;55;20131;-75
2021/08/09 05:55:05;;;;;;;2.78;1.55;;;;;;;18.33;76.39;96545.63;5329424;55;20113;-75
2021/08/09 06:00:08;;;;;;;3.22;1.38;;;;;;;18.75;77.01;96543.84;5327405;55;20148;-75
2021/08/09 06:05:11;;;;;;;2.83;1.23;;;;;;;19.02;75.38;96554.25;5327584;55;20126;-75
2021/08/09 06:10:13;;;;;;;2.65;1.70;;;;;;;18.72;73.80;96542.84;5327313;55;20118;-75
2021/08/09 06:15:15;;;;;;;2.67;1.50;;;;;;;19.31;74.01;96542.44;5327146;55;20114;-75
2021/08/09 06:20:18;;;;;;;1.98;1.45;;;;;;;19.44;70.79;96531.44;5327050;55;20130;-75
2021/08/09 06:25:20;;;;;;;3.50;1.35;;;;;;;18.85;71.48;96540.25;5327282;55;20148;-75
2021/08/09 06:30:23;;;;;;;2.03;1.02;;;;;;;19.15;69.06;96541.22;5326598;55;20127;-74
2021/08/09 06:35:25;;;;;;;1.33;1.23;;;;;;;19.32;72.90;96541.13;5326572;55;20122;-75
2021/08/09 06:40:27;;;;;;;3.50;1.33;;;;;;;19.20;74.27;96548.06;5326405;55;20113;-75
2021/08/09 06:45:30;;;;;;;4.55;1.42;;;;;;;19.27;73.55;96553.91;5316771;55;20162;-74
2021/08/09 06:50:32;;;;;;;2.10;1.38;;;;;;;19.58;71.04;96554.84;5317720;55;20190;-75
2021/08/09 06:55:35;;;;;;;3.78;1.33;;;;;;;19.47;72.96;96544.41;5317282;55;20732;-75
2021/08/09 07:00:38;;;;;;;3.70;1.45;;;;;;;19.70;74.27;96545.06;5326589;55;20109;-75
2021/08/09 07:05:42;;;;;;;1.45;1.35;;;;;;;19.61;71.18;96537.72;5324647;55;20136;-75
2021/08/09 07:10:47;;;;;;;2.55;1.30;;;;;;;19.82;73.03;96530.50;5326121;55;20100;-74
2021/08/09 07:15:49;;;;;;;1.88;1.13;;;;;;;20.02;68.81;96537.75;5325921;55;20118;-75
2021/08/09 07:20:51;;;;;;;1.20;1.10;;;;;;;20.10;65.88;96549.97;5324991;55;20113;-75
2021/08/09 07:25:54;;;;;;;2.08;1.00;;;;;;;20.26;64.70;96551.91;5309825;55;20110;-75
2021/08/09 07:30:56;;;;;;;1.48;0.90;;;;;;;19.89;60.54;96549.56;5324244;55;20193;-75
2021/08/09 07:36:00;;;;;;;1.33;0.90;;;;;;;20.54;60.29;96558.06;5323920;55;20581;-75
2021/08/09 07:41:03;;;;;;;1.50;1.10;;;;;;;20.71;59.02;96557.94;5323563;55;20109;-75
2021/08/09 07:46:05;;;;;;;3.80;1.38;;;;;;;20.76;60.33;96559.16;5320785;55;20122;-75
2021/08/09 07:51:08;;;;;;;1.17;1.08;;;;;;;20.69;62.50;96550.00;5324391;55;20113;-76
2021/08/09 07:56:10;;;;;;;0.98;0.98;;;;;;;21.37;62.52;96567.78;5325913;55;20603;-76
2021/08/09 08:01:12;;;;;;;1.02;0.80;;;;;;;21.51;57.33;96560.94;5329098;55;20121;-75
2021/08/09 08:06:15;;;;;;;1.27;1.00;;;;;;;21.74;54.56;96556.56;5329087;55;20118;-75
2021/08/09 08:11:17;;;;;;;0.75;0.75;;;;;;;21.40;57.14;96552.63;5328852;55;20136;-75
2021/08/09 08:16:20;;;;;;;3.17;1.38;;;;;;;22.27;56.30;96556.88;5328506;55;20126;-74
2021/08/09 08:21:22;;;;;;;1.23;0.90;;;;;;;22.95;55.28;96544.00;5329043;55;20117;-73
2021/08/09 08:26:25;;;;;;;3.42;1.02;;;;;;;24.47;49.74;96550.38;5326296;55;20118;-76
2021/08/09 08:31:27;;;;;;;1.35;1.00;;;;;;;25.23;48.16;96552.56;5323188;55;20109;-75
2021/08/09 08:36:30;;;;;;;2.13;1.20;;;;;;;25.93;47.06;96556.00;5326730;55;20187;-76
2021/08/09 08:41:32;;;;;;;1.10;1.00;;;;;;;25.61;45.53;96564.13;5316896;55;20131;-76
2021/08/09 08:46:41;;;;;;;1.25;0.90;;;;;;;25.32;44.90;96560.53;5324403;55;20741;-76
2021/08/09 08:51:46;;;;;;;1.00;1.00;;;;;;;25.49;45.92;96563.69;5325376;55;20630;-75
2021/08/09 08:56:49;;;;;;;1.25;0.90;;;;;;;25.18;48.28;96553.47;5326207;55;20131;-75
2021/08/09 09:01:54;;;;;;;1.73;1.00;;;;;;;25.82;47.71;96564.06;5327109;55;20675;-75
2021/08/09 09:07:02;;;;;;;2.95;0.80;;;;;;;26.03;48.27;96561.91;5326677;55;20123;-75
2021/08/09 09:12:13;;;;;;;1.38;0.98;;;;;;;26.18;43.45;96559.91;5309837;55;20100;-75
2021/08/09 09:17:31;;;;;;;2.53;1.08;;;;;;;26.62;46.12;96574.00;5321285;55;20700;-76
2021/08/09 09:22:34;;;;;;;2.72;1.00;;;;;;;25.52;45.70;96565.41;5318775;55;20122;-75
2021/08/09 09:27:36;;;;;;;0.85;0.85;;;;;;;27.23;43.77;96569.16;5325467;55;20113;-75
2021/08/09 09:32:38;;;;;;;1.58;1.10;;;;;;;27.25;41.83;96572.19;5322948;55;20122;-75
2021/08/09 09:37:50;;;;;;;1.85;1.00;;;;;;;27.54;40.47;96576.34;5323747;55;20126;-75
2021/08/09 09:42:54;;;;;;;0.70;0.70;;;;;;;27.73;40.16;96563.22;5324608;55;20133;-75
2021/08/09 09:48:04;;;;;;;1.60;0.90;;;;;;;28.31;40.47;96564.94;5320605;55;20131;-76
2021/08/09 09:53:15;;;;;;;1.20;0.93;;;;;;;28.40;41.41;96567.13;5323674;55;20105;-75
2021/08/09 09:58:19;;;;;;;2.47;1.02;;;;;;;28.37;41.39;96567.53;5326101;55;20140;-75
2021/08/09 10:03:21;;;;;;;1.40;1.15;;;;;;;28.81;39.02;96559.34;5326442;55;20123;-76
2021/08/09 10:08:27;;;;;;;3.40;0.85;;;;;;;28.60;43.69;96553.22;5326549;55;20113;-73
2021/08/09 10:13:31;;;;;;;0.80;0.80;;;;;;;29.93;39.53;96556.81;5318120;55;20114;-74
2021/08/09 10:18:39;;;;;;;3.67;1.10;;;;;;;26.91;41.74;96555.53;5315417;55;20126;-76
2021/08/09 10:23:45;;;;;;;1.02;1.02;;;;;;;28.17;40.79;96552.28;5324025;55;20118;-74
2021/08/09 10:28:50;;;;;;;1.70;1.10;;;;;;;28.02;39.54;96549.50;5325933;55;20648;-76
2021/08/09 10:33:53;;;;;;;1.45;0.98;;;;;;;27.51;44.60;96544.16;5326913;55;20104;-74
2021/08/09 10:39:00;;;;;;;2.13;1.00;;;;;;;26.77;43.47;96551.38;5326472;55;20100;-75
2021/08/09 10:44:05;;;;;;;0.90;0.90;;;;;;;29.59;36.88;96543.31;5326883;55;20803;-75
2021/08/09 10:49:09;;;;;;;1.35;0.93;;;;;;;29.51;39.24;96539.03;5326162;55;20122;-75
2021/08/09 10:54:25;;;;;;;2.17;1.05;;;;;;;29.41;37.18;96541.00;5325634;55;20122;-76
2021/08/09 10:59:47;;;;;;;1.30;1.00;;;;;;;29.12;37.07;96535.00;5325883;55;20126;-75
2021/08/09 11:05:14;;;;;;;1.75;1.05;;;;;;;28.92;35.12;96534.03;5326271;55;20667;-76
2021/08/09 11:10:55;;;;;;;1.87;1.03;;;;;;;28.44;37.60;96529.78;5317723;55;20109;-76
2021/08/09 11:16:03;;;;;;;2.53;1.20;;;;;;;29.40;38.61;96528.88;5325680;55;20122;-74
2021/08/09 11:21:08;;;;;;;1.08;1.00;;;;;;;29.16;37.24;96538.19;5326488;55;20305;-74
2021/08/09 11:26:19;;;;;;;1.92;0.93;;;;;;;29.00;39.69;96533.97;5325691;55;20674;-76
2021/08/09 11:31:21;;;;;;;0.82;0.80;;;;;;;28.44;39.34;96529.78;5320051;55;20118;-76
2021/08/09 11:36:24;;;;;;;1.17;1.08;;;;;;;27.97;42.03;96515.59;5329094;55;20738;-76
2021/08/09 11:41:28;;;;;;;1.15;0.90;;;;;;;28.58;41.96;96524.59;5329168;55;20113;-74
2021/08/09 11:46:32;;;;;;;1.48;0.80;;;;;;;28.60;39.97;96522.69;5329494;55;20113;-74
2021/08/09 11:51:35;;;;;;;1.27;0.90;;;;;;;30.25;36.12;96516.69;5329027;55;20658;-74
2021/08/09 11:56:40;;;;;;;1.10;0.90;;;;;;;29.01;39.16;96509.88;5328659;55;20113;-74
2021/08/09 12:01:44;;;;;;;1.17;0.75;;;;;;;29.41;37.96;96515.38;5328773;55;20095;-74
2021/08/09 12:06:58;;;;;;;4.45;1.10;;;;;;;29.76;35.27;96509.13;5328483;55;20109;-74
2021/08/09 12:12:03;;;;;;;1.75;1.00;;;;;;;29.37;34.46;96524.38;5328692;55;20737;-74
2021/08/09 12:17:19;;;;;;;0.88;0.80;;;;;;;29.41;38.56;96530.38;5328350;55;20129;-75
2021/08/09 12:22:31;;;;;;;1.00;0.90;;;;;;;29.26;39.07;96527.69;5320478;55;20122;-74
2021/08/09 12:27:34;;;;;;;1.52;0.90;;;;;;;30.02;35.23;96535.44;5328410;55;20117;-74
2021/08/09 12:32:43;;;;;;;0.90;0.90;;;;;;;29.57;37.42;96523.19;5328685;55;20109;-74
2021/08/09 12:37:55;;;;;;;1.95;0.98;;;;;;;29.91;35.90;96518.84;5327922;55;20272;-74
2021/08/09 12:43:02;;;;;;;0.75;0.75;;;;;;;30.46;32.65;96525.53;5327951;55;20096;-75
2021/08/09 12:48:05;;;;;;;0.80;0.80;;;;;;;29.92;34.45;96523.22;5327839;55;20683;-74
2021/08/09 12:53:09;;;;;;;0.95;0.80;;;;;;;30.42;33.62;96524.47;5328013;55;20701;-75
2021/08/09 12:58:11;;;;;;;1.85;1.00;;;;;;;30.15;35.59;96515.13;5327522;55;20126;-75
2021/08/09 13:03:14;;;;;;;1.85;1.00;;;;;;;30.14;36.01;96508.69;5326990;55;20113;-74
2021/08/09 13:08:16;;;;;;;1.20;1.10;;;;;;;30.43;32.59;96503.16;5319049;55;20113;-75
2021/08/09 13:13:18;;;;;;;1.33;1.15;;;;;;;30.65;35.92;96507.03;5327815;55;20119;-74
2021/08/09 13:18:23;;;;;;;1.05;0.80;;;;;;;31.00;35.54;96505.53;5319085;55;20126;-75
2021/08/09 13:23:26;;;;;;;5.20;1.10;;;;;;;30.39;32.78;96508.56;5329112;55;20109;-74
2021/08/09 13:28:34;;;;;;;1.58;0.98;;;;;;;29.66;34.50;96490.44;5327665;55;20109;-76
2021/08/09 13:33:36;;;;;;;1.58;0.90;;;;;;;29.63;35.96;96485.91;5327948;55;20273;-75
2021/08/09 13:38:39;;;;;;;0.98;0.88;;;;;;;29.25;37.29;96489.16;5327054;55;20795;-75
2021/08/09 13:43:41;;;;;;;1.35;1.15;;;;;;;29.56;37.04;96475.38;5327198;55;20105;-74
2021/08/09 13:48:49;;;;;;;0.80;0.80;;;;;;;29.98;36.56;96478.09;5327330;55;20126;-75
2021/08/09 13:53:51;;;;;;;1.42;1.00;;;;;;;29.59;38.17;96477.03;5326485;55;20584;-75
2021/08/09 13:58:53;;;;;;;1.20;1.00;;;;;;;28.46;37.76;96469.50;5326712;55;20121;-75
2021/08/09 14:03:56;;;;;;;0.90;0.90;;;;;;;27.79;38.87;96474.22;5322809;55;20127;-75
2021/08/09 14:08:58;;;;;;;0.98;0.80;;;;;;;27.94;38.72;96471.28;5317483;55;20568;-75
2021/08/09 14:14:00;;;;;;;1.33;1.00;;;;;;;28.16;41.30;96485.41;5326718;55;20727;-74
2021/08/09 14:19:03;;;;;;;2.05;0.80;;;;;;;27.44;40.12;96476.03;5326681;55;20130;-74
2021/08/09 14:24:06;;;;;;;0.80;0.80;;;;;;;28.09;42.63;96483.38;5326631;55;20118;-75
2021/08/09 14:29:08;;;;;;;1.10;1.00;;;;;;;28.23;41.74;96484.63;5326617;55;20131;-75
2021/08/09 14:34:11;;;;;;;1.45;1.02;;;;;;;27.84;40.84;96485.34;5327602;55;20135;-74
2021/08/09 14:39:13;;;;;;;0.73;0.73;;;;;;;27.99;39.09;96485.31;5323323;55;20122;-75
2021/08/09 14:44:16;;;;;;;0.80;0.80;;;;;;;28.05;38.08;96483.00;5322637;55;20113;-75
2021/08/09 14:49:18;;;;;;;2.20;0.98;;;;;;;29.07;38.38;96481.91;5315808;55;20117;-75
2021/08/09 14:54:20;;;;;;;1.00;0.80;;;;;;;29.25;37.70;96482.72;5323501;55;20207;-75
2021/08/09 14:59:23;;;;;;;1.83;1.00;;;;;;;29.30;36.23;96471.09;5324067;55;20126;-75
2021/08/09 15:04:25;;;;;;;1.38;1.02;;;;;;;29.67;35.72;96484.16;5324416;55;20118;-78
2021/08/09 15:09:27;;;;;;;1.08;0.98;;;;;;;28.92;38.51;96476.38;5317535;55;20721;-74
2021/08/09 15:14:30;;;;;;;0.80;0.80;;;;;;;28.60;37.47;96494.25;5324268;55;20671;-74
2021/08/09 15:19:33;;;;;;;2.38;1.20;;;;;;;28.29;36.36;96484.41;5325286;55;20653;-75
2021/08/09 15:24:36;;;;;;;1.13;1.02;;;;;;;28.23;37.10;96481.78;5323223;55;20577;-74
2021/08/09 15:29:39;;;;;;;1.30;1.20;;;;;;;27.40;39.49;96484.19;5325068;55;20109;-74
2021/08/09 15:34:41;;;;;;;1.40;1.00;;;;;;;26.74;39.04;96490.09;5316449;55;20122;-74
2021/08/09 15:39:43;;;;;;;1.42;1.05;;;;;;;26.74;41.39;96498.63;5325913;55;20598;-74
2021/08/09 15:44:46;;;;;;;1.65;1.10;;;;;;;26.63;42.72;96502.56;5319867;55;20101;-75
2021/08/09 15:49:48;;;;;;;1.77;1.00;;;;;;;26.81;45.84;96495.03;5323611;55;20113;-74
2021/08/09 15:54:50;;;;;;;1.90;1.10;;;;;;;26.81;42.64;96495.78;5327258;55;20113;-74
2021/08/09 15:59:53;;;;;;;2.15;1.02;;;;;;;26.51;43.59;96504.25;5321033;55;20230;-73
2021/08/09 16:04:55;;;;;;;5.78;1.17;;;;;;;26.04;46.91;96516.00;5321902;55;20109;-74
2021/08/09 16:09:58;;;;;;;0.90;0.90;;;;;;;25.91;45.67;96504.84;5322595;55;20157;-75
2021/08/09 16:15:00;;;;;;;1.52;0.95;;;;;;;25.68;46.26;96491.91;5324266;55;20105;-75
2021/08/09 16:20:04;;;;;;;2.65;1.15;;;;;;;25.50;49.83;96500.13;5328489;55;20194;-75
2021/08/09 16:25:07;;;;;;;1.70;0.90;;;;;;;25.48;49.38;96496.34;5324002;55;20127;-75
2021/08/09 16:30:10;;;;;;;1.38;1.30;;;;;;;25.57;49.89;96479.59;5317689;55;20819;-75
2021/08/09 16:35:13;;;;;;;1.00;1.00;;;;;;;25.28;53.33;96489.44;5324926;55;20684;-76
2021/08/09 16:40:15;;;;;;;1.38;1.25;;;;;;;25.10;49.75;96493.28;5328602;55;20113;-76
2021/08/09 16:45:18;;;;;;;1.60;1.13;;;;;;;24.92;52.62;96495.00;5328662;55;20675;-76
2021/08/09 16:50:20;;;;;;;1.58;1.13;;;;;;;24.76;55.26;96489.81;5319206;55;20096;-75
2021/08/09 16:55:23;;;;;;;1.88;1.23;;;;;;;24.62;58.92;96494.75;5324335;55;20131;-75
2021/08/09 17:00:25;;;;;;;0.95;0.95;;;;;;;24.53;59.36;96486.00;5328069;55;20145;-75
2021/08/09 17:05:27;;;;;;;1.23;1.13;;;;;;;24.64;61.80;96480.06;5325605;55;20108;-75
2021/08/09 17:10:39;;;;;;;2.42;1.25;;;;;;;24.82;60.26;96479.88;5328564;55;20118;-75
2021/08/09 17:15:42;;;;;;;1.23;1.00;;;;;;;24.84;57.66;96490.63;5329062;55;20127;-75
2021/08/09 17:20:45;;;;;;;2.67;1.15;;;;;;;24.99;57.99;96487.16;5329099;55;20123;-76
2021/08/09 17:25:47;;;;;;;1.58;1.13;;;;;;;24.66;61.26;96500.06;5328757;55;20122;-75
2021/08/09 17:30:50;;;;;;;1.20;1.20;;;;;;;24.73;60.82;96507.84;5319089;55;20584;-76
2021/08/09 17:35:52;;;;;;;1.40;1.20;;;;;;;24.75;57.55;96508.03;5328354;55;20109;-75
2021/08/09 17:40:55;;;;;;;6.80;1.50;;;;;;;24.48;57.76;96513.09;5328006;55;20122;-75
2021/08/09 17:45:57;;;;;;;6.15;1.50;;;;;;;23.97;56.66;96511.97;5328711;55;20122;-75
2021/08/09 17:50:59;;;;;;;3.92;1.50;;;;;;;23.81;58.76;96510.28;5325872;55;20119;-75
2021/08/09 17:56:02;;;;;;;1.48;1.38;;;;;;;23.54;59.97;96492.63;5324651;55;20113;-75
2021/08/09 18:01:05;;;;;;;2.15;1.48;;;;;;;23.40;61.30;96516.53;5315752;55;20122;-76
2021/08/09 18:06:07;;;;;;;2.22;1.30;;;;;;;23.33;63.69;96517.13;5327419;55;20118;-75
2021/08/09 18:11:10;;;;;;;2.38;1.20;;;;;;;23.10;66.09;96507.59;5321388;55;20109;-75
2021/08/09 18:16:12;;;;;;;1.38;1.20;;;;;;;22.81;65.30;96506.59;5327281;55;20122;-75
2021/08/09 18:21:15;;;;;;;1.30;1.20;;;;;;;22.52;67.23;96502.72;5320877;55;20135;-75
2021/08/09 18:26:17;;;;;;;2.08;1.40;;;;;;;22.37;67.35;96488.38;5324557;55;20529;-75
2021/08/09 18:31:20;;;;;;;1.45;1.35;;;;;;;22.18;68.56;96504.56;5316097;55;20537;-75
2021/08/09 18:36:22;;;;;;;1.45;1.35;;;;;;;21.75;68.42;96512.31;5325203;55;20627;-75
2021/08/09 18:41:26;;;;;;;1.33;1.10;;;;;;;21.69;70.30;96509.56;5324805;55;20144;-75
2021/08/09 18:46:28;;;;;;;6.40;1.42;;;;;;;21.58;70.26;96517.41;5325671;55;20702;-75
2021/08/09 18:51:32;;;;;;;1.52;1.42;;;;;;;20.96;73.15;96525.00;5316597;55;20117;-75
2021/08/09 18:56:34;;;;;;;1.23;1.13;;;;;;;20.73;73.39;96528.03;5325121;55;20109;-75
2021/08/09 19:01:37;;;;;;;5.00;1.20;;;;;;;20.58;74.02;96524.09;5325653;55;20122;-75
2021/08/09 19:06:41;;;;;;;1.40;1.30;;;;;;;20.30;74.22;96534.78;5325469;55;20126;-75
2021/08/09 19:11:43;;;;;;;3.05;1.70;;;;;;;20.13;75.11;96525.72;5325981;55;20185;-75
2021/08/09 19:16:46;;;;;;;5.40;1.35;;;;;;;20.01;75.38;96528.56;5318207;55;20118;-74
2021/08/09 19:21:55;;;;;;;2.33;1.35;;;;;;;19.65;76.81;96543.09;5325450;55;20228;-75
2021/08/09 19:26:59;;;;;;;1.58;1.48;;;;;;;19.54;76.60;96534.72;5326013;55;20127;-75
2021/08/09 19:32:02;;;;;;;1.65;1.23;;;;;;;19.52;76.41;96529.63;5329533;55;20114;-75
2021/08/09 19:37:04;;;;;;;1.40;1.30;;;;;;;19.29;76.89;96537.31;5325652;55;20127;-75
2021/08/09 19:42:07;;;;;;;1.55;1.35;;;;;;;19.09;76.38;96550.88;5329250;55;20134;-74
2021/08/09 19:47:09;;;;;;;1.85;1.40;;;;;;;19.19;77.05;96530.50;5327143;55;20131;-76
2021/08/09 19:52:12;;;;;;;4.18;1.30;;;;;;;19.04;76.81;96518.81;5326688;55;20113;-76
2021/08/09 19:57:14;;;;;;;3.95;1.40;;;;;;;18.78;77.28;96526.78;5329280;55;20715;-74
2021/08/09 20:02:17;;;;;;;3.33;1.60;;;;;;;18.68;77.33;96531.09;5330054;55;20170;-75
2021/08/09 20:07:20;;;;;;;1.60;1.33;;;;;;;18.66;77.20;96539.25;5330686;55;20710;-75
2021/08/09 20:12:22;;;;;;;3.35;1.42;;;;;;;18.55;77.89;96540.03;5328189;55;20584;-76
2021/08/09 20:17:27;;;;;;;1.42;1.33;;;;;;;18.60;78.41;96542.06;5327370;55;20567;-76
2021/08/09 20:22:30;;;;;;;2.38;1.48;;;;;;;18.75;77.64;96553.00;5329752;55;20113;-76
2021/08/09 20:27:32;;;;;;;1.45;1.35;;;;;;;18.84;78.24;96549.19;5328708;55;20252;-76
2021/08/09 20:32:34;;;;;;;1.42;1.40;;;;;;;18.81;78.39;96541.78;5329159;55;20118;-76
2021/08/09 20:37:37;;;;;;;3.55;1.73;;;;;;;18.84;77.32;96554.78;5340000;55;20117;-75
2021/08/09 20:42:41;;;;;;;6.20;1.83;;;;;;;18.63;77.18;96550.72;5330938;55;20222;-75
2021/08/09 20:47:43;;;;;;;2.85;1.88;;;;;;;18.60;75.97;96553.28;5328289;55;20113;-75
2021/08/09 20:52:46;;;;;;;2.95;1.77;;;;;;;18.49;76.55;96546.91;5328188;55;20586;-75
2021/08/09 20:57:49;;;;;;;2.00;1.77;;;;;;;18.34;77.16;96544.31;5329295;55;20210;-75
2021/08/09 21:02:51;;;;;;;3.33;1.80;;;;;;;18.18;77.75;96556.28;5327500;55;20118;-75
2021/08/09 21:07:55;;;;;;;2.05;1.85;;;;;;;18.12;78.18;96563.13;5329230;55;20118;-75
2021/08/09 21:12:58;;;;;;;2.13;1.90;;;;;;;18.02;78.89;96565.44;5319343;55;20118;-75
2021/08/09 21:18:00;;;;;;;3.95;2.00;;;;;;;17.92;79.01;96569.72;5330162;55;20215;-76
2021/08/09 21:23:03;;;;;;;2.28;1.85;;;;;;;17.91;78.91;96571.00;5328887;55;20118;-76
2021/08/09 21:28:05;;;;;;;2.03;1.70;;;;;;;17.74;79.91;96570.16;5326280;55;20123;-76
2021/08/09 21:33:08;;;;;;;2.22;1.98;;;;;;;17.65;80.78;96581.56;5327289;55;20109;-75
2021/08/09 21:38:10;;;;;;;3.22;1.58;;;;;;;17.58;79.92;96570.88;5328505;55;20190;-75
2021/08/09 21:43:13;;;;;;;1.85;1.60;;;;;;;17.49;80.67;96583.00;5326746;55;20143;-75
2021/08/09 21:48:16;;;;;;;5.75;2.05;;;;;;;17.30;81.61;96581.16;5326029;55;20149;-75
2021/08/09 21:53:18;;;;;;;3.40;1.70;;;;;;;17.26;81.86;96580.59;5326328;55;20127;-75
2021/08/09 21:58:21;;;;;;;3.42;1.92;;;;;;;17.37;81.68;96577.88;5317116;55;20131;-75
2021/08/09 22:03:23;;;;;;;2.10;1.85;;;;;;;17.38;81.64;96571.03;5324678;55;20161;-75
2021/08/09 22:08:26;;;;;;;5.13;2.13;;;;;;;17.33;81.63;96586.50;5324178;55;20118;-75
2021/08/09 22:13:29;;;;;;;2.83;1.85;;;;;;;17.33;81.65;96578.13;5314515;55;20689;-75
2021/08/09 22:18:31;;;;;;;7.90;1.90;;;;;;;17.23;81.73;96576.81;5323815;55;20104;-75
2021/08/09 22:23:34;;;;;;;3.80;1.95;;;;;;;17.21;81.38;96571.72;5325165;55;20132;-75
2021/08/09 22:28:36;;;;;;;5.10;1.98;;;;;;;17.05;82.20;96580.75;5325448;55;20681;-75
2021/08/09 22:33:39;;;;;;;2.40;2.05;;;;;;;16.96;82.53;96578.16;5325170;55;20144;-75
2021/08/09 22:38:42;;;;;;;3.92;2.03;;;;;;;16.95;82.62;96584.25;5325313;55;20123;-75
2021/08/09 22:43:44;;;;;;;2.13;1.73;;;;;;;16.92;82.63;96576.88;5326551;55;20135;-75
2021/08/09 22:48:46;;;;;;;1.80;1.70;;;;;;;16.81;83.02;96577.56;5325871;55;20123;-75
2021/08/09 22:53:49;;;;;;;2.13;1.80;;;;;;;16.75;83.35;96579.56;5325352;55;20706;-75
2021/08/09 22:58:51;;;;;;;1.67;1.58;;;;;;;16.68;83.90;96579.25;5325060;55;20109;-75
2021/08/09 23:03:56;;;;;;;2.20;2.00;;;;;;;16.75;84.13;96560.03;5324574;55;20117;-75
2021/08/09 23:08:58;;;;;;;4.40;2.03;;;;;;;16.67;84.18;96572.88;5326235;55;20148;-75
2021/08/09 23:14:00;;;;;;;2.10;1.63;;;;;;;16.71;83.43;96565.06;5324124;55;20122;-75
2021/08/09 23:19:03;;;;;;;1.90;1.80;;;;;;;16.58;83.74;96567.50;5324639;55;20113;-75
2021/08/09 23:24:10;;;;;;;3.53;1.80;;;;;;;16.51;83.42;96573.53;5326141;55;20127;-75
2021/08/09 23:29:12;;;;;;;2.80;1.90;;;;;;;16.59;83.27;96576.63;5352925;55;20129;-75
2021/08/09 23:34:15;;;;;;;1.90;1.67;;;;;;;16.43;83.58;96566.84;5328825;55;20127;-74
2021/08/09 23:39:17;;;;;;;4.05;1.90;;;;;;;16.32;83.84;96580.72;5326958;55;20118;-75
2021/08/09 23:44:19;;;;;;;1.80;1.70;;;;;;;16.25;84.78;96575.56;5327499;55;20117;-75
2021/08/09 23:49:22;;;;;;;1.80;1.70;;;;;;;16.36;83.55;96559.69;5317845;55;20569;-74